Time;durP1;ratioP1;P1;durP2;ratioP2;P2;SDS_P1;SDS_P2;PMS_P1;PMS_P2;Temp;Humidity;BMP_temperature;BMP_pressure;BME280_temperature;BME280_humidity;BME280_pressure;Samples;Min_cycle;Max_cycle;Signal;HPM_P1;HPM_P2
2021/07/27 00:00:19;;;;;;;;;17.67;14.67;;;;;;;;5028381;27;48745;-79
2021/07/27 00:02:44;;;;;;;;;12.75;12.00;;;;;;;;5036242;27;45344;-78
2021/07/27 00:05:10;;;;;;;;;18.00;15.33;;;;;;;;5031879;27;45396;-79
2021/07/27 00:07:38;;;;;;;;;15.75;13.75;;;;;;;;5017150;27;45471;-78
2021/07/27 00:10:04;;;;;;;;;14.75;13.75;;;;;;;;5032715;28;45430;-78
2021/07/27 00:12:29;;;;;;;;;14.50;13.25;;;;;;;;5029444;27;45588;-79
2021/07/27 00:14:55;;;;;;;;;15.67;14.33;;;;;;;;5033792;27;46149;-79
2021/07/27 00:17:20;;;;;;;;;16.67;12.67;;;;;;;;5015146;27;45426;-79
2021/07/27 00:19:45;;;;;;;;;15.33;11.33;;;;;;;;5031918;27;45598;-79
2021/07/27 00:22:10;;;;;;;;;12.67;12.67;;;;;;;;5056064;28;45581;-79
2021/07/27 00:24:35;;;;;;;;;16.67;14.33;;;;;;;;5015418;27;47474;-79
2021/07/27 00:27:01;;;;;;;;;13.00;13.00;;;;;;;;5031938;27;45360;-78
2021/07/27 00:29:26;;;;;;;;;13.33;13.33;;;;;;;;5033647;27;45258;-78
2021/07/27 00:31:51;;;;;;;;;13.33;12.67;;;;;;;;5033608;27;45476;-78
2021/07/27 00:34:16;;;;;;;;;17.00;13.33;;;;;;;;5032827;28;45534;-78
2021/07/27 00:36:41;;;;;;;;;11.67;11.67;;;;;;;;5031203;27;45512;-77
2021/07/27 00:39:07;;;;;;;;;15.67;13.67;;;;;;;;5030198;27;45572;-77
2021/07/27 00:41:33;;;;;;;;;14.00;12.33;;;;;;;;5023421;27;45483;-79
2021/07/27 00:43:58;;;;;;;;;15.00;14.00;;;;;;;;5017023;27;46735;-78
2021/07/27 00:46:23;;;;;;;;;12.67;12.67;;;;;;;;5016865;28;45357;-79
2021/07/27 00:48:49;;;;;;;;;13.67;13.67;;;;;;;;5016308;28;45639;-79
2021/07/27 00:51:14;;;;;;;;;18.00;12.33;;;;;;;;5030824;27;45420;-78
2021/07/27 00:53:39;;;;;;;;;18.00;13.00;;;;;;;;5042256;27;45586;-79
2021/07/27 00:56:06;;;;;;;;;15.75;14.00;;;;;;;;5033541;27;45530;-78
2021/07/27 00:58:31;;;;;;;;;21.75;12.50;;;;;;;;5031821;28;45492;-79
2021/07/27 01:00:56;;;;;;;;;11.75;11.75;;;;;;;;5033010;27;45441;-79
2021/07/27 01:03:22;;;;;;;;;15.67;13.67;;;;;;;;5044109;28;48769;-79
2021/07/27 01:05:47;;;;;;;;;16.50;13.50;;;;;;;;5017532;27;45456;-79
2021/07/27 01:08:12;;;;;;;;;16.50;12.00;;;;;;;;5031449;27;45614;-79
2021/07/27 01:10:38;;;;;;;;;17.25;13.75;;;;;;;;5031366;27;45482;-78
2021/07/27 01:13:03;;;;;;;;;16.00;12.00;;;;;;;;5031996;28;46150;-78
2021/07/27 01:15:29;;;;;;;;;13.50;11.50;;;;;;;;5028203;27;45535;-78
2021/07/27 01:18:02;;;;;;;;;13.50;11.50;;;;;;;;5033046;27;45459;-79
2021/07/27 01:44:27;;;;;;;;;14.00;13.00;;;;;;;;5034153;28;45513;-79
2021/07/27 01:46:52;;;;;;;;;15.33;15.33;;;;;;;;5012373;27;45414;-79
2021/07/27 01:49:17;;;;;;;;;12.67;12.67;;;;;;;;5015955;28;45507;-79
2021/07/27 01:51:43;;;;;;;;;14.67;13.33;;;;;;;;5030283;27;45616;-79
2021/07/27 01:54:12;;;;;;;;;14.50;12.25;;;;;;;;5032557;27;45948;-79
2021/07/27 01:56:38;;;;;;;;;16.25;14.50;;;;;;;;5036252;28;45473;-79
2021/07/27 01:59:03;;;;;;;;;12.67;12.00;;;;;;;;5033858;27;45364;-79
2021/07/27 02:01:28;;;;;;;;;15.25;13.00;;;;;;;;5035412;28;45393;-79
2021/07/27 02:03:56;;;;;;;;;15.33;14.00;;;;;;;;5018638;27;46081;-79
2021/07/27 02:06:22;;;;;;;;;12.75;12.00;;;;;;;;5029960;27;45759;-79
2021/07/27 02:08:47;;;;;;;;;14.75;12.25;;;;;;;;5019394;27;45451;-79
2021/07/27 02:11:18;;;;;;;;;16.00;12.25;;;;;;;;5049706;28;45455;-78
2021/07/27 02:13:49;;;;;;;;;15.75;11.25;;;;;;;;5032040;27;45392;-79
2021/07/27 02:16:14;;;;;;;;;18.50;14.25;;;;;;;;5022062;28;45935;-79
2021/07/27 02:18:39;;;;;;;;;18.50;11.75;;;;;;;;5034054;27;45468;-79
2021/07/27 02:21:04;;;;;;;;;15.00;13.67;;;;;;;;5015678;27;45344;-78
2021/07/27 02:23:30;;;;;;;;;18.33;15.00;;;;;;;;5034593;27;45397;-79
2021/07/27 02:25:55;;;;;;;;;13.67;12.67;;;;;;;;5033690;27;45536;-78
2021/07/27 02:28:20;;;;;;;;;15.00;14.25;;;;;;;;5018978;28;45596;-79
2021/07/27 02:30:50;;;;;;;;;15.25;13.50;;;;;;;;5032368;27;45566;-78
2021/07/27 02:33:15;;;;;;;;;18.75;14.75;;;;;;;;5030514;28;45524;-78
2021/07/27 02:35:41;;;;;;;;;15.75;13.50;;;;;;;;5036880;27;45819;-79
2021/07/27 02:38:06;;;;;;;;;13.25;12.50;;;;;;;;5020828;27;45361;-79
2021/07/27 02:40:32;;;;;;;;;12.00;10.00;;;;;;;;5052225;27;45505;-79
2021/07/27 02:42:58;;;;;;;;;17.25;13.50;;;;;;;;5023101;28;45435;-79
2021/07/27 02:45:23;;;;;;;;;12.50;12.25;;;;;;;;5011753;27;45893;-78
2021/07/27 02:47:49;;;;;;;;;14.50;13.25;;;;;;;;5018791;27;45951;-79
2021/07/27 02:50:14;;;;;;;;;13.50;12.75;;;;;;;;5035492;27;45502;-79
2021/07/27 02:52:40;;;;;;;;;16.50;15.00;;;;;;;;5033029;28;45430;-77
2021/07/27 02:55:05;;;;;;;;;15.33;14.00;;;;;;;;5033658;28;45462;-78
2021/07/27 02:57:30;;;;;;;;;15.25;12.75;;;;;;;;5029853;27;45615;-79
2021/07/27 02:59:57;;;;;;;;;16.33;13.33;;;;;;;;5016671;27;45595;-79
2021/07/27 03:02:35;;;;;;;;;14.25;13.75;;;;;;;;5035592;27;46331;-78
2021/07/27 03:05:00;;;;;;;;;15.50;14.50;;;;;;;;5033473;27;45350;-79
2021/07/27 03:07:34;;;;;;;;;21.33;15.00;;;;;;;;5033321;28;45479;-78
2021/07/27 03:10:17;;;;;;;;;15.00;13.25;;;;;;;;5007865;28;45472;-79
2021/07/27 03:12:43;;;;;;;;;18.75;14.75;;;;;;;;5033470;27;45498;-79
2021/07/27 03:15:09;;;;;;;;;19.25;13.00;;;;;;;;5086963;27;45469;-79
2021/07/27 03:17:34;;;;;;;;;18.00;14.50;;;;;;;;5052270;28;45344;-79
2021/07/27 03:20:02;;;;;;;;;12.67;10.00;;;;;;;;5033249;27;45472;-78
2021/07/27 03:22:27;;;;;;;;;11.75;11.75;;;;;;;;5032953;28;46686;-78
2021/07/27 03:24:52;;;;;;;;;14.33;13.33;;;;;;;;5048295;28;45451;-78
2021/07/27 03:27:18;;;;;;;;;13.33;11.67;;;;;;;;5011837;27;46431;-78
2021/07/27 03:29:43;;;;;;;;;18.67;15.67;;;;;;;;5036273;27;45275;-78
2021/07/27 03:32:08;;;;;;;;;17.00;13.00;;;;;;;;5017206;28;46251;-78
2021/07/27 03:34:33;;;;;;;;;16.50;12.50;;;;;;;;5033098;27;45776;-78
2021/07/27 03:36:58;;;;;;;;;14.67;13.67;;;;;;;;5017641;28;45526;-79
2021/07/27 03:39:25;;;;;;;;;17.67;13.33;;;;;;;;5029413;27;45274;-78
2021/07/27 03:41:50;;;;;;;;;15.00;12.75;;;;;;;;5017226;27;46334;-79
2021/07/27 03:44:15;;;;;;;;;15.00;13.00;;;;;;;;5016947;27;45555;-79
2021/07/27 03:46:44;;;;;;;;;15.00;14.00;;;;;;;;5017458;27;45465;-77
2021/07/27 03:49:09;;;;;;;;;15.00;12.50;;;;;;;;5032976;28;45420;-79
2021/07/27 03:51:34;;;;;;;;;11.67;11.67;;;;;;;;5030289;27;45670;-79
2021/07/27 03:53:59;;;;;;;;;18.33;16.00;;;;;;;;5032802;27;45342;-79
2021/07/27 03:56:25;;;;;;;;;14.67;13.00;;;;;;;;5035589;27;45411;-78
2021/07/27 03:58:50;;;;;;;;;14.67;11.00;;;;;;;;5032002;27;45483;-79
2021/07/27 04:01:15;;;;;;;;;13.33;12.33;;;;;;;;5032831;28;45405;-78
2021/07/27 04:03:40;;;;;;;;;15.67;13.33;;;;;;;;5030823;27;46220;-78
2021/07/27 04:06:06;;;;;;;;;17.50;14.50;;;;;;;;5013954;27;45798;-78
2021/07/27 04:08:31;;;;;;;;;13.00;11.33;;;;;;;;5033940;28;45286;-78
2021/07/27 04:11:00;;;;;;;;;18.75;13.50;;;;;;;;5017000;27;47032;-77
2021/07/27 04:13:25;;;;;;;;;17.75;12.00;;;;;;;;5033666;28;45898;-78
2021/07/27 04:15:51;;;;;;;;;18.67;14.33;;;;;;;;5046279;28;45405;-77
2021/07/27 04:18:16;;;;;;;;;15.00;12.00;;;;;;;;5011253;27;45505;-79
2021/07/27 04:20:41;;;;;;;;;17.00;15.75;;;;;;;;5034546;27;45489;-78
2021/07/27 04:23:07;;;;;;;;;18.75;14.75;;;;;;;;5033017;27;45499;-78
2021/07/27 04:25:32;;;;;;;;;14.67;12.67;;;;;;;;5032184;28;45495;-78
2021/07/27 04:27:57;;;;;;;;;18.67;16.00;;;;;;;;5016806;27;45486;-78
2021/07/27 04:30:22;;;;;;;;;16.00;12.00;;;;;;;;5043379;28;47600;-77
2021/07/27 04:32:47;;;;;;;;;15.00;11.75;;;;;;;;5017337;28;45563;-78
2021/07/27 04:35:13;;;;;;;;;22.00;16.00;;;;;;;;5062235;27;45388;-79
2021/07/27 04:37:38;;;;;;;;;17.33;14.00;;;;;;;;5043627;27;45407;-79
2021/07/27 04:40:03;;;;;;;;;16.33;14.00;;;;;;;;5032129;28;45621;-78
2021/07/27 04:42:28;;;;;;;;;21.00;15.50;;;;;;;;5028100;27;45380;-78
2021/07/27 04:44:54;;;;;;;;;21.67;15.33;;;;;;;;5033921;27;45711;-79
2021/07/27 04:47:21;;;;;;;;;16.67;13.67;;;;;;;;5032957;27;45738;-79
2021/07/27 04:49:46;;;;;;;;;18.75;13.50;;;;;;;;5031734;27;47308;-78
2021/07/27 04:52:15;;;;;;;;;16.00;14.33;;;;;;;;5031744;28;45324;-78
2021/07/27 04:54:50;;;;;;;;;13.50;12.25;;;;;;;;5029821;27;45702;-77
2021/07/27 04:57:15;;;;;;;;;14.25;12.75;;;;;;;;5028417;27;45495;-78
2021/07/27 04:59:40;;;;;;;;;15.67;14.00;;;;;;;;5016444;27;48426;-78
2021/07/27 05:02:10;;;;;;;;;18.33;13.00;;;;;;;;5031364;27;45448;-77
2021/07/27 05:04:35;;;;;;;;;16.00;14.50;;;;;;;;5032018;27;45412;-79
2021/07/27 05:07:02;;;;;;;;;15.67;14.33;;;;;;;;5016571;28;45508;-78
2021/07/27 05:09:27;;;;;;;;;11.25;11.00;;;;;;;;5027448;27;46263;-79
2021/07/27 05:11:57;;;;;;;;;18.33;15.33;;;;;;;;5016279;28;45334;-78
2021/07/27 05:14:23;;;;;;;;;14.25;13.25;;;;;;;;5034538;27;45701;-78
2021/07/27 05:16:48;;;;;;;;;16.25;12.75;;;;;;;;5016034;27;45481;-78
2021/07/27 05:19:13;;;;;;;;;17.67;14.00;;;;;;;;5031464;28;46204;-79
2021/07/27 05:21:38;;;;;;;;;13.67;12.00;;;;;;;;5029241;27;45415;-79
2021/07/27 05:24:04;;;;;;;;;16.33;13.33;;;;;;;;5031334;27;45483;-79
2021/07/27 05:26:29;;;;;;;;;13.50;12.00;;;;;;;;5033632;27;45307;-79
2021/07/27 05:28:54;;;;;;;;;15.00;15.00;;;;;;;;5034187;27;45512;-78
2021/07/27 05:31:19;;;;;;;;;15.67;14.00;;;;;;;;5018883;28;45785;-78
2021/07/27 05:33:45;;;;;;;;;15.00;13.33;;;;;;;;5016004;28;45487;-79
2021/07/27 05:36:10;;;;;;;;;15.00;13.75;;;;;;;;5014777;27;45603;-78
2021/07/27 05:38:35;;;;;;;;;18.33;13.33;;;;;;;;5035794;27;45454;-79
2021/07/27 05:41:00;;;;;;;;;15.00;14.00;;;;;;;;5033833;27;51266;-79
2021/07/27 05:43:26;;;;;;;;;18.67;16.00;;;;;;;;5034274;28;45712;-79
2021/07/27 05:45:51;;;;;;;;;17.00;15.33;;;;;;;;5032397;27;45606;-77
2021/07/27 05:48:16;;;;;;;;;15.33;14.00;;;;;;;;5017805;27;45535;-78
2021/07/27 05:50:42;;;;;;;;;14.00;11.33;;;;;;;;5036906;27;45418;-78
2021/07/27 05:53:07;;;;;;;;;15.25;13.00;;;;;;;;5018939;27;45376;-78
2021/07/27 05:55:32;;;;;;;;;17.33;14.33;;;;;;;;5035407;28;45540;-78
2021/07/27 05:57:57;;;;;;;;;18.33;17.00;;;;;;;;5034402;27;45549;-79
2021/07/27 06:00:22;;;;;;;;;16.33;15.33;;;;;;;;5029757;27;45493;-78
2021/07/27 06:02:48;;;;;;;;;22.00;14.67;;;;;;;;5037581;27;45209;-78
2021/07/27 06:05:13;;;;;;;;;14.25;12.00;;;;;;;;5034256;27;45981;-79
2021/07/27 06:07:38;;;;;;;;;16.50;13.25;;;;;;;;5033451;27;45439;-79
2021/07/27 06:10:04;;;;;;;;;22.00;15.33;;;;;;;;5033764;28;47360;-78
2021/07/27 06:12:32;;;;;;;;;17.25;14.50;;;;;;;;5013467;27;45938;-80
2021/07/27 06:14:57;;;;;;;;;15.50;13.25;;;;;;;;5017207;27;45492;-80
2021/07/27 06:17:22;;;;;;;;;17.33;16.33;;;;;;;;5035957;27;45487;-78
2021/07/27 06:19:48;;;;;;;;;14.67;13.33;;;;;;;;5033652;27;45394;-79
2021/07/27 06:22:16;;;;;;;;;18.67;13.33;;;;;;;;5033648;28;45582;-79
2021/07/27 06:24:41;;;;;;;;;13.50;13.50;;;;;;;;5032015;27;45402;-77
2021/07/27 06:27:06;;;;;;;;;18.00;15.00;;;;;;;;5033049;27;45544;-78
2021/07/27 06:29:31;;;;;;;;;20.00;14.33;;;;;;;;5035378;27;45478;-77
2021/07/27 06:31:56;;;;;;;;;14.67;13.67;;;;;;;;5033908;28;45571;-78
2021/07/27 06:34:22;;;;;;;;;14.67;13.67;;;;;;;;5035469;28;45676;-79
2021/07/27 06:36:47;;;;;;;;;17.00;15.00;;;;;;;;5047386;28;48127;-78
2021/07/27 06:39:12;;;;;;;;;17.33;16.33;;;;;;;;5013076;27;45464;-79
2021/07/27 06:41:37;;;;;;;;;15.00;13.67;;;;;;;;5035732;27;45411;-78
2021/07/27 06:44:03;;;;;;;;;17.00;13.33;;;;;;;;5033008;27;45516;-79
2021/07/27 06:46:28;;;;;;;;;19.00;17.50;;;;;;;;5033199;28;45483;-79
2021/07/27 06:48:54;;;;;;;;;15.00;11.50;;;;;;;;5018543;27;45777;-79
2021/07/27 06:51:19;;;;;;;;;13.75;12.25;;;;;;;;5006251;27;45375;-78
2021/07/27 06:53:44;;;;;;;;;16.25;14.25;;;;;;;;5018683;27;45421;-78
2021/07/27 06:56:10;;;;;;;;;12.00;9.75;;;;;;;;5048781;28;46052;-79
2021/07/27 06:58:36;;;;;;;;;17.25;15.75;;;;;;;;5033203;27;48120;-79
2021/07/27 07:01:11;;;;;;;;;14.25;11.25;;;;;;;;5027972;27;45392;-79
2021/07/27 07:03:37;;;;;;;;;20.75;15.25;;;;;;;;5015772;27;45521;-79
2021/07/27 07:06:02;;;;;;;;;24.75;15.00;;;;;;;;5016424;27;46208;-78
2021/07/27 07:08:28;;;;;;;;;15.50;14.50;;;;;;;;5019334;27;45596;-79
2021/07/27 07:10:55;;;;;;;;;16.33;16.33;;;;;;;;5019961;27;45532;-78
2021/07/27 07:13:21;;;;;;;;;14.25;14.25;;;;;;;;5014061;28;45400;-77
2021/07/27 07:15:46;;;;;;;;;16.33;12.67;;;;;;;;5015089;27;45545;-79
2021/07/27 07:18:11;;;;;;;;;17.33;13.67;;;;;;;;5012721;27;45769;-78
2021/07/27 07:20:36;;;;;;;;;15.67;14.00;;;;;;;;5019817;27;45588;-78
2021/07/27 07:23:01;;;;;;;;;17.67;14.67;;;;;;;;5021084;27;45420;-78
2021/07/27 07:25:27;;;;;;;;;18.67;14.67;;;;;;;;5013420;28;46889;-78
2021/07/27 07:27:52;;;;;;;;;13.33;12.67;;;;;;;;5013708;27;45847;-78
2021/07/27 07:30:17;;;;;;;;;13.33;12.33;;;;;;;;5014366;27;45308;-79
2021/07/27 07:32:42;;;;;;;;;23.33;17.00;;;;;;;;5012722;28;45797;-79
2021/07/27 07:35:08;;;;;;;;;15.33;13.33;;;;;;;;5020192;27;45451;-78
2021/07/27 07:37:33;;;;;;;;;16.75;15.50;;;;;;;;5012745;27;46385;-79
2021/07/27 07:39:58;;;;;;;;;16.25;14.25;;;;;;;;5032995;28;45321;-78
2021/07/27 07:42:23;;;;;;;;;13.67;12.00;;;;;;;;5017105;27;45411;-78
2021/07/27 07:44:48;;;;;;;;;16.00;15.67;;;;;;;;5009625;27;46303;-79
2021/07/27 07:47:14;;;;;;;;;15.33;15.00;;;;;;;;5020293;27;45412;-79
2021/07/27 07:49:39;;;;;;;;;15.67;13.33;;;;;;;;5025633;27;45419;-78
2021/07/27 07:52:04;;;;;;;;;18.00;13.33;;;;;;;;5033398;27;45455;-78
2021/07/27 07:54:31;;;;;;;;;16.00;12.25;;;;;;;;5033913;27;46603;-78
2021/07/27 07:56:56;;;;;;;;;16.75;12.75;;;;;;;;5014876;27;45463;-79
2021/07/27 07:59:21;;;;;;;;;17.25;12.75;;;;;;;;5017086;27;45533;-79
2021/07/27 08:01:48;;;;;;;;;15.00;14.25;;;;;;;;5044659;27;45490;-79
2021/07/27 08:04:13;;;;;;;;;16.50;15.25;;;;;;;;5031471;28;46193;-79
2021/07/27 08:06:38;;;;;;;;;17.75;15.75;;;;;;;;5015021;27;45669;-78
2021/07/27 08:09:04;;;;;;;;;15.25;14.50;;;;;;;;5014842;27;46244;-78
2021/07/27 08:11:29;;;;;;;;;15.75;13.25;;;;;;;;5057335;27;45522;-78
2021/07/27 08:13:57;;;;;;;;;17.67;15.33;;;;;;;;5032218;27;46274;-78
2021/07/27 08:16:22;;;;;;;;;18.50;14.00;;;;;;;;5032472;28;45373;-79
2021/07/27 08:18:47;;;;;;;;;17.00;13.67;;;;;;;;5031628;27;45478;-78
2021/07/27 08:21:13;;;;;;;;;13.50;12.75;;;;;;;;5031184;27;45373;-78
2021/07/27 08:23:43;;;;;;;;;16.00;13.00;;;;;;;;5033506;27;46075;-78
2021/07/27 08:26:08;;;;;;;;;17.50;13.25;;;;;;;;5031691;28;45434;-78
2021/07/27 08:28:34;;;;;;;;;15.75;14.00;;;;;;;;5032362;27;45471;-79
2021/07/27 08:30:59;;;;;;;;;14.67;11.00;;;;;;;;5032121;28;45677;-79
2021/07/27 08:33:24;;;;;;;;;15.33;14.00;;;;;;;;5027454;27;45998;-79
2021/07/27 08:35:49;;;;;;;;;18.67;15.00;;;;;;;;5035541;27;45370;-79
2021/07/27 08:38:14;;;;;;;;;20.00;16.50;;;;;;;;5048065;28;45380;-79
2021/07/27 08:40:40;;;;;;;;;18.00;15.33;;;;;;;;5025158;27;45865;-78
2021/07/27 08:43:07;;;;;;;;;15.00;14.00;;;;;;;;5034005;28;46052;-78
2021/07/27 08:45:32;;;;;;;;;15.25;14.25;;;;;;;;5021504;27;47863;-79
2021/07/27 08:47:58;;;;;;;;;19.25;16.25;;;;;;;;5016771;27;45321;-78
2021/07/27 08:50:25;;;;;;;;;16.50;15.25;;;;;;;;5049442;28;45409;-78
2021/07/27 08:52:51;;;;;;;;;21.00;18.00;;;;;;;;5031645;27;46160;-79
2021/07/27 08:55:16;;;;;;;;;16.50;15.25;;;;;;;;5031216;27;45562;-80
2021/07/27 08:58:02;;;;;;;;;16.33;14.33;;;;;;;;5019869;27;45268;-79
2021/07/27 09:00:27;;;;;;;;;18.75;15.75;;;;;;;;5022646;27;45303;-79
2021/07/27 09:02:53;;;;;;;;;19.00;13.00;;;;;;;;5032938;27;45831;-79
2021/07/27 09:05:18;;;;;;;;;19.67;16.33;;;;;;;;5010664;28;46074;-78
2021/07/27 09:07:43;;;;;;;;;16.75;13.75;;;;;;;;5039908;27;45370;-79
2021/07/27 09:10:12;;;;;;;;;16.00;15.00;;;;;;;;5015351;27;45478;-78
2021/07/27 09:12:37;;;;;;;;;16.50;15.50;;;;;;;;5026704;27;45806;-79
2021/07/27 09:15:06;;;;;;;;;22.00;15.33;;;;;;;;5012659;27;45683;-79
2021/07/27 09:17:32;;;;;;;;;13.00;13.00;;;;;;;;5031974;27;45443;-78
2021/07/27 09:19:57;;;;;;;;;15.50;14.50;;;;;;;;5028292;27;45984;-79
2021/07/27 09:22:23;;;;;;;;;14.50;12.50;;;;;;;;5030909;28;46134;-79
2021/07/27 09:24:48;;;;;;;;;14.67;13.33;;;;;;;;5014659;28;45550;-78
2021/07/27 09:27:13;;;;;;;;;14.00;14.00;;;;;;;;5029029;27;45544;-79
2021/07/27 09:29:46;;;;;;;;;20.33;15.67;;;;;;;;5033119;27;45415;-79
2021/07/27 09:32:18;;;;;;;;;15.75;14.50;;;;;;;;5030437;28;45429;-79
2021/07/27 09:34:43;;;;;;;;;14.25;13.75;;;;;;;;5030849;27;45582;-78
2021/07/27 09:37:09;;;;;;;;;15.67;12.67;;;;;;;;5046617;28;45328;-79
2021/07/27 09:39:35;;;;;;;;;20.67;14.33;;;;;;;;5027778;27;45536;-79
2021/07/27 09:42:04;;;;;;;;;18.50;14.50;;;;;;;;5013047;27;47191;-79
2021/07/27 09:44:30;;;;;;;;;17.75;14.00;;;;;;;;5031844;27;45889;-79
2021/07/27 09:46:56;;;;;;;;;14.75;14.50;;;;;;;;5045564;27;45494;-78
2021/07/27 09:49:21;;;;;;;;;15.25;12.50;;;;;;;;5031484;28;45483;-79
2021/07/27 09:51:48;;;;;;;;;17.00;13.50;;;;;;;;5078458;27;47160;-78
2021/07/27 09:54:13;;;;;;;;;16.50;14.50;;;;;;;;5014257;27;45488;-79
2021/07/27 09:56:38;;;;;;;;;14.25;12.50;;;;;;;;5032688;27;45464;-79
2021/07/27 09:59:04;;;;;;;;;14.00;10.33;;;;;;;;5030657;27;45294;-79
2021/07/27 10:01:29;;;;;;;;;14.75;12.75;;;;;;;;5029620;28;45365;-79
2021/07/27 10:03:58;;;;;;;;;19.75;14.00;;;;;;;;5030149;27;45459;-79
2021/07/27 10:06:28;;;;;;;;;17.75;13.00;;;;;;;;5026006;27;45688;-79
2021/07/27 10:08:58;;;;;;;;;15.50;15.00;;;;;;;;5014958;27;45432;-78
2021/07/27 10:11:35;;;;;;;;;22.50;14.50;;;;;;;;5030618;27;46117;-79
2021/07/27 10:14:06;;;;;;;;;14.50;13.00;;;;;;;;5032131;27;45426;-79
2021/07/27 10:16:31;;;;;;;;;16.50;12.75;;;;;;;;5018662;28;45855;-79
2021/07/27 10:18:56;;;;;;;;;15.67;14.00;;;;;;;;5048904;28;45488;-79
2021/07/27 10:21:25;;;;;;;;;15.67;15.00;;;;;;;;5012012;27;46688;-78
2021/07/27 10:23:55;;;;;;;;;13.00;12.75;;;;;;;;5047271;28;45859;-80
2021/07/27 10:26:25;;;;;;;;;16.75;15.25;;;;;;;;5029440;27;45518;-79
2021/07/27 10:28:53;;;;;;;;;16.00;14.00;;;;;;;;5027209;27;45402;-79
2021/07/27 10:31:29;;;;;;;;;12.50;11.50;;;;;;;;5028300;27;47404;-79
2021/07/27 10:33:54;;;;;;;;;15.25;14.25;;;;;;;;5015705;27;45908;-79
2021/07/27 10:36:26;;;;;;;;;19.67;14.33;;;;;;;;5012822;27;45308;-79
2021/07/27 10:38:52;;;;;;;;;16.25;13.25;;;;;;;;5033398;27;45373;-79
2021/07/27 10:41:18;;;;;;;;;14.25;12.25;;;;;;;;5017789;27;46035;-79
2021/07/27 10:43:44;;;;;;;;;16.25;14.00;;;;;;;;5032749;27;45303;-80
2021/07/27 10:46:11;;;;;;;;;14.25;13.50;;;;;;;;5032870;27;48915;-79
2021/07/27 10:48:37;;;;;;;;;15.75;12.75;;;;;;;;5030708;27;46333;-79
2021/07/27 10:51:02;;;;;;;;;14.75;11.75;;;;;;;;5033692;27;45625;-79
2021/07/27 10:53:32;;;;;;;;;13.25;13.25;;;;;;;;5027771;27;45550;-79
2021/07/27 10:56:07;;;;;;;;;15.50;13.50;;;;;;;;5036663;27;45547;-79
2021/07/27 10:58:33;;;;;;;;;14.00;13.25;;;;;;;;5046131;28;45361;-79
2021/07/27 11:01:08;;;;;;;;;17.50;14.00;;;;;;;;5087148;27;45988;-80
2021/07/27 11:03:33;;;;;;;;;12.75;10.50;;;;;;;;5045071;28;46246;-80
2021/07/27 11:05:59;;;;;;;;;13.75;12.50;;;;;;;;5033856;27;45500;-78
2021/07/27 11:08:25;;;;;;;;;11.75;11.50;;;;;;;;5034294;27;45574;-79
2021/07/27 11:10:50;;;;;;;;;15.33;13.33;;;;;;;;5032363;27;46234;-79
2021/07/27 11:13:15;;;;;;;;;15.00;11.00;;;;;;;;5016310;28;45466;-78
2021/07/27 11:15:40;;;;;;;;;11.00;11.00;;;;;;;;5014549;27;45821;-77
2021/07/27 11:18:05;;;;;;;;;15.67;14.00;;;;;;;;5030492;27;45417;-79
2021/07/27 11:20:32;;;;;;;;;10.33;10.33;;;;;;;;5017399;27;48236;-79
2021/07/27 11:22:59;;;;;;;;;14.00;13.00;;;;;;;;5036293;27;45915;-79
2021/07/27 11:25:26;;;;;;;;;13.00;11.25;;;;;;;;5030840;28;45647;-79
2021/07/27 11:27:52;;;;;;;;;16.75;13.50;;;;;;;;5028463;27;46604;-79
2021/07/27 11:30:18;;;;;;;;;16.50;12.25;;;;;;;;5012325;27;46208;-79
2021/07/27 11:32:48;;;;;;;;;14.00;14.00;;;;;;;;5051880;28;46306;-79
2021/07/27 11:35:16;;;;;;;;;14.50;13.75;;;;;;;;5032517;27;45571;-80
2021/07/27 11:37:42;;;;;;;;;12.00;10.25;;;;;;;;5032709;27;45475;-79
2021/07/27 11:40:08;;;;;;;;;16.50;12.25;;;;;;;;5028094;28;47327;-79
2021/07/27 11:42:34;;;;;;;;;11.75;10.25;;;;;;;;5032526;27;45506;-79
2021/07/27 11:45:04;;;;;;;;;13.75;12.00;;;;;;;;5015721;27;45410;-79
2021/07/27 11:47:42;;;;;;;;;15.25;13.50;;;;;;;;5033329;27;45401;-79
2021/07/27 11:50:11;;;;;;;;;9.50;9.50;;;;;;;;5016786;27;47473;-80
2021/07/27 11:52:36;;;;;;;;;12.25;10.75;;;;;;;;5031848;27;46077;-80
2021/07/27 11:55:03;;;;;;;;;11.67;11.67;;;;;;;;5032807;28;45597;-79
2021/07/27 11:57:28;;;;;;;;;10.75;10.75;;;;;;;;5030131;27;45465;-79
2021/07/27 12:00:05;;;;;;;;;10.00;10.00;;;;;;;;5034734;28;46157;-79
2021/07/27 12:02:30;;;;;;;;;13.75;13.00;;;;;;;;5033453;27;45817;-79
2021/07/27 12:04:55;;;;;;;;;14.33;11.33;;;;;;;;5031580;27;45580;-80
2021/07/27 12:07:23;;;;;;;;;12.00;9.00;;;;;;;;5048323;28;45491;-78
2021/07/27 12:09:48;;;;;;;;;11.75;8.25;;;;;;;;5031148;27;46351;-79
2021/07/27 12:12:13;;;;;;;;;9.00;9.00;;;;;;;;5030432;27;45279;-79
2021/07/27 12:14:39;;;;;;;;;15.33;9.00;;;;;;;;5035815;27;45453;-79
2021/07/27 12:17:05;;;;;;;;;14.67;11.00;;;;;;;;5031829;27;45326;-79
2021/07/27 12:19:30;;;;;;;;;10.25;8.50;;;;;;;;5047063;28;47722;-79
2021/07/27 12:21:55;;;;;;;;;11.67;10.67;;;;;;;;5032166;28;45414;-78
2021/07/27 12:24:21;;;;;;;;;14.00;12.00;;;;;;;;5028906;27;45763;-80
2021/07/27 12:26:46;;;;;;;;;9.67;9.67;;;;;;;;5034927;27;45332;-78
2021/07/27 12:29:11;;;;;;;;;12.33;12.33;;;;;;;;5032229;27;46177;-79
2021/07/27 12:31:36;;;;;;;;;14.67;12.00;;;;;;;;5031626;28;45294;-79
2021/07/27 12:34:02;;;;;;;;;14.00;12.67;;;;;;;;5031406;27;45299;-80
2021/07/27 12:36:27;;;;;;;;;15.00;12.33;;;;;;;;5043043;27;45507;-80
2021/07/27 12:38:52;;;;;;;;;9.00;9.00;;;;;;;;5016216;27;46168;-80
2021/07/27 12:41:17;;;;;;;;;11.00;9.00;;;;;;;;5015921;27;45501;-79
2021/07/27 12:43:42;;;;;;;;;8.67;8.00;;;;;;;;5016101;27;45624;-79
2021/07/27 12:46:08;;;;;;;;;11.00;10.33;;;;;;;;5047076;28;45765;-79
2021/07/27 12:48:33;;;;;;;;;8.00;8.00;;;;;;;;5044453;27;47200;-80
2021/07/27 12:50:58;;;;;;;;;11.00;8.75;;;;;;;;5014303;27;45433;-79
2021/07/27 12:53:26;;;;;;;;;14.00;11.75;;;;;;;;5014313;27;45383;-78
2021/07/27 12:55:52;;;;;;;;;8.50;8.50;;;;;;;;5031735;27;45478;-78
2021/07/27 12:58:18;;;;;;;;;10.50;8.25;;;;;;;;5031640;28;46841;-79
2021/07/27 13:00:43;;;;;;;;;11.00;7.00;;;;;;;;5029540;27;48848;-79
2021/07/27 13:03:08;;;;;;;;;9.00;7.67;;;;;;;;5012676;28;45561;-79
2021/07/27 13:05:34;;;;;;;;;7.00;6.00;;;;;;;;5014688;27;45291;-79
2021/07/27 13:07:59;;;;;;;;;7.50;7.50;;;;;;;;5028724;27;45517;-78
2021/07/27 13:10:24;;;;;;;;;8.25;6.75;;;;;;;;5026742;28;45352;-79
2021/07/27 13:12:50;;;;;;;;;7.67;7.67;;;;;;;;5015535;27;45524;-79
2021/07/27 13:15:15;;;;;;;;;6.00;6.00;;;;;;;;5066626;27;47159;-80
2021/07/27 13:17:40;;;;;;;;;10.75;7.00;;;;;;;;5015036;27;46372;-80
2021/07/27 13:20:06;;;;;;;;;9.00;8.33;;;;;;;;5016004;27;45364;-80
2021/07/27 13:22:32;;;;;;;;;8.25;5.75;;;;;;;;5030977;28;45587;-86
2021/07/27 13:24:57;;;;;;;;;7.50;6.50;;;;;;;;5044839;27;46404;-79
2021/07/27 13:27:23;;;;;;;;;4.50;3.50;;;;;;;;5028957;27;46325;-79
2021/07/27 13:29:48;;;;;;;;;8.00;5.33;;;;;;;;5046196;27;45529;-79
2021/07/27 13:32:13;;;;;;;;;10.00;7.00;;;;;;;;5012540;27;45398;-79
2021/07/27 13:34:38;;;;;;;;;6.00;6.00;;;;;;;;5026336;27;45512;-80
2021/07/27 13:37:06;;;;;;;;;5.67;4.67;;;;;;;;5028366;27;45654;-80
2021/07/27 13:39:31;;;;;;;;;4.75;4.75;;;;;;;;5027660;27;46179;-79
2021/07/27 13:41:57;;;;;;;;;5.33;4.00;;;;;;;;5013149;27;45527;-80
2021/07/27 13:44:22;;;;;;;;;6.75;6.50;;;;;;;;5030905;27;45850;-80
2021/07/27 13:46:47;;;;;;;;;5.67;5.00;;;;;;;;5045023;27;47012;-79
2021/07/27 13:49:13;;;;;;;;;7.00;6.00;;;;;;;;5033242;27;45381;-79
2021/07/27 13:51:38;;;;;;;;;5.25;5.00;;;;;;;;5032151;27;45448;-79
2021/07/27 13:54:03;;;;;;;;;6.00;6.00;;;;;;;;5000901;27;45425;-80
2021/07/27 13:56:28;;;;;;;;;6.00;6.00;;;;;;;;5016134;27;47635;-79
2021/07/27 13:58:54;;;;;;;;;7.75;6.00;;;;;;;;5021373;27;45951;-79
2021/07/27 14:01:20;;;;;;;;;6.50;5.50;;;;;;;;5023177;27;45570;-79
2021/07/27 14:03:45;;;;;;;;;8.75;7.50;;;;;;;;5020938;27;45407;-80
2021/07/27 14:06:10;;;;;;;;;10.00;7.33;;;;;;;;5016673;27;45583;-78
2021/07/27 14:08:35;;;;;;;;;9.33;6.67;;;;;;;;5024290;27;45804;-79
2021/07/27 14:11:00;;;;;;;;;8.00;6.33;;;;;;;;5020375;27;45420;-80
2021/07/27 14:13:26;;;;;;;;;9.00;8.00;;;;;;;;5017705;27;45295;-79
2021/07/27 14:15:52;;;;;;;;;8.75;6.50;;;;;;;;5015142;27;45480;-79
2021/07/27 14:18:17;;;;;;;;;9.75;8.50;;;;;;;;5011334;27;47061;-79
2021/07/27 14:20:42;;;;;;;;;7.00;6.50;;;;;;;;5017901;27;45397;-78
2021/07/27 14:23:08;;;;;;;;;9.00;9.00;;;;;;;;5013140;27;46104;-80
2021/07/27 14:25:33;;;;;;;;;9.00;8.00;;;;;;;;5022783;28;46358;-79
2021/07/27 14:27:58;;;;;;;;;10.00;8.00;;;;;;;;5019197;27;45475;-79
2021/07/27 14:30:24;;;;;;;;;11.50;8.75;;;;;;;;5013642;27;45450;-78
2021/07/27 14:32:52;;;;;;;;;6.00;6.00;;;;;;;;5018025;28;45441;-79
2021/07/27 14:35:17;;;;;;;;;7.50;7.50;;;;;;;;5015195;27;47493;-79
2021/07/27 14:37:43;;;;;;;;;9.00;7.00;;;;;;;;5024541;27;45350;-78